Terminal Aerodrome Forecast
Issued by NWS

Home | Current Version | Previous Version | Text Only | Print | Product List | Glossary On
Versions: 1 2 3 4 5 6 7 8 9 10 11 12 13 14 15 16 17 18 19 20 21 22 23 24 25 26 27
000
FTUS44 KMOB 110522
TAFBFM
TAF
KBFM 110522Z 1106/1206 32006KT P6SM SCT250
     FM111500 08005KT P6SM SCT020
     FM111800 12008KT P6SM BKN022
     FM120300 15008KT 2SM BR OVC007=

USA.gov is the U.S. government's official web portal to all federal, state and local government web resources and services.